首页
METAR-TAF:

METAR-TAF

机场 :

Newberry, 密歇根州, 美国

纬度: 46-18-40N, 经度: 085-27-26W, 海拔: 265米

当前天气观测

该预报发布于31分钟前的10:35 UTC
风速5节,风向北转西北
温度 14°C
湿度 100%
气压 1014 hPa
能見度: 16.1公里
散云层高于2300英尺
散云层高于9000英尺

METAR: KERY 011035Z AUTO 33005KT 10SM SCT023 SCT090 14/14 A2994 RMK AO2 T01350135

时间: 07:06 (11:06 UTC)


TAF: 丢失

超过4000个机场的气象观测和天气预报(METAR&TAF报告)。

可查询的气象台以黄色和红色小点在地图上表示。

将鼠标移到小点上方,可查看气象台名称。

然后点击查看天气观测和预报。

如需切换地图:点击带黑十字的绿色按钮放大地图;点击带横线的绿色按钮缩小地图;或者点击绿色箭头查看邻近地区的地图。


METAR-TAF: